Latest Weather Observations for Fortescue Dave Forrest

IDW60801

Issued at 12:05 pm WST Thursday 2 October 2014 (issued every 30 minutes, with the page automatically refreshed every 10 minutes)

About weather observations | Map of weather stations | Latest weather observations for WA | Other Formats
Station Details ID: 505056 Name: FORTESCUE DAVE FORREST Lat: -22.29 Lon: 119.43 Height: 474.6 m
Data from the previous 72 hours. | See also: Recent months for locations in Western Australia
Date/Time
WST
Temp
°C
App
Temp
°C
Dew
Point
Rel
Hum
%
Delta-T
°C
Wind Press
QNH
hPa
Press
MSL
hPa
Rain
since 9 am
mm
Dir
 
Spd
km/h
Gust
km/h
Spd
kts
Gust
kts
02/12:00pm 34.7 31.6 3.4 14 16.6 SSW 9 17 5 9 1014.2 1011.2 -
02/11:30am 34.0 29.4 3.7 15 16.1 SSE 17 24 9 13 1014.7 1011.8 -
02/11:27am 34.0 30.2 3.7 15 16.1 S 13 24 7 13 1014.7 1011.8 -
02/11:00am 34.0 30.6 4.1 15 16.0 SSW 11 22 6 12 1014.9 1012.0 -
02/10:56am 33.8 30.0 4.0 15 15.9 SSW 13 24 7 13 1014.8 1011.9 -
02/10:30am 33.2 29.1 4.1 16 15.5 S 15 28 8 15 1015.2 1012.3 -
02/10:00am 32.2 27.0 3.6 16 15.0 S 20 33 11 18 1015.3 1012.4 -
02/08:30am 29.3 24.4 5.2 21 12.8 S 20 30 11 16 1015.7 1012.7 -
02/08:20am 28.7 24.4 5.1 22 12.5 S 17 24 9 13 1015.5 1012.6 -
02/08:05am 28.6 24.7 5.2 22 12.4 S 15 24 8 13 1015.7 1012.7 -
02/08:00am 28.5 24.9 5.1 22 12.3 S 13 20 7 11 1015.7 1012.7 -
02/07:44am 27.8 24.3 5.3 24 11.9 S 13 19 7 10 1015.7 1012.7 -
02/07:30am 27.1 24.7 5.4 25 11.4 S 7 15 4 8 1015.7 1012.7 -
02/07:00am 25.0 22.8 5.4 28 10.2 SSW 6 13 3 7 1015.3 1012.4 -
02/06:30am 23.8 21.6 5.2 30 9.6 SSW 6 9 3 5 1015.1 1012.2 -
02/06:00am 23.7 21.2 4.9 29 9.6 S 7 11 4 6 1014.9 1012.0 -
02/05:30am 23.8 20.9 4.8 29 9.7 S 9 13 5 7 1014.7 1011.8 -
02/05:00am 23.7 20.8 4.7 29 9.7 S 9 11 5 6 1014.3 1011.3 -
02/04:30am 24.3 21.4 4.6 28 10.1 S 9 15 5 8 1014.1 1011.1 -
02/04:00am 24.5 21.6 4.4 27 10.2 SSE 9 13 5 7 1014.1 1011.1 -
02/03:30am 25.5 21.8 4.6 26 10.7 S 13 20 7 11 1013.8 1010.8 -
02/03:12am 25.1 21.4 4.4 26 10.6 S 13 19 7 10 1013.6 1010.6 -
02/03:00am 25.0 21.3 4.4 26 10.5 S 13 19 7 10 1013.6 1010.6 0.0
02/02:30am 25.8 22.5 4.3 25 11.0 SW 11 17 6 9 1013.8 1010.8 -
02/02:00am 25.9 22.2 4.2 24 11.1 SW 13 19 7 10 1013.7 1010.7 -
02/01:30am 26.3 22.9 3.8 23 11.5 WSW 11 15 6 8 1013.6 1010.6 -
02/01:00am 27.1 22.9 3.7 22 12.0 WSW 15 20 8 11 1013.6 1010.6 -
02/12:51am 27.2 22.6 3.5 21 12.1 SW 17 24 9 13 1013.6 1010.6 -
02/12:30am 27.4 23.1 3.0 20 12.3 WSW 15 22 8 12 1013.9 1010.9 -
02/12:21am 27.7 23.3 2.8 20 12.6 WSW 15 24 8 13 1014.0 1011.0 -
02/12:00am 27.9 22.7 2.4 19 12.8 SW 19 26 10 14 1013.9 1010.9 -
 
Date/Time
WST
Temp
°C
App
Temp
°C
Dew
Point
Rel
Hum
%
Delta-T
°C
Wind Press
QNH
hPa
Press
MSL
hPa
Rain
since 9 am
mm
Dir
 
Spd
km/h
Gust
km/h
Spd
kts
Gust
kts
01/11:30pm 27.8 22.1 0.7 17 13.2 W 20 26 11 14 1013.9 1010.9 -
01/11:00pm 27.8 24.5 0.0 16 13.4 W 7 9 4 5 1013.6 1010.6 -
01/10:30pm 25.7 21.2 -0.4 18 12.3 WNW 13 15 7 8 1013.5 1010.5 -
01/10:00pm 28.1 25.3 -0.4 15 13.6 W 4 6 2 3 1013.5 1010.5 -
01/09:30pm 26.6 23.4 -0.4 17 12.8 WSW 6 7 3 4 1013.7 1010.7 -
01/09:00pm 26.5 24.1 -0.6 17 12.8 NE 2 4 1 2 1013.5 1010.5 0.0
01/08:30pm 28.7 25.8 -0.9 14 14.1 NNW 4 4 2 2 1013.5 1010.5 -
01/08:00pm 28.2 25.0 -0.6 15 13.8 WNW 6 6 3 3 1013.3 1010.4 -
01/07:30pm 29.6 26.4 -0.8 14 14.6 W 6 6 3 3 1013.1 1010.2 -
01/07:00pm 31.1 28.2 -1.1 12 15.6 NW 4 6 2 3 1012.8 1009.9 -
01/06:30pm 32.5 29.6 -1.1 11 16.4 N 4 6 2 3 1012.5 1009.6 -
01/06:00pm 34.8 31.3 -1.5 10 17.9 NE 7 11 4 6 1012.3 1009.3 -
01/05:30pm 36.2 32.3 -1.5 9 18.7 N 9 11 5 6 1012.1 1009.1 -
01/05:00pm 36.8 31.7 -1.7 8 19.1 NNE 15 24 8 13 1012.0 1009.0 -
01/04:30pm 36.9 31.1 -1.8 8 19.2 NNE 19 33 10 18 1011.9 1008.9 -
01/04:00pm 37.1 31.7 -1.1 9 19.2 NNE 17 24 9 13 1011.9 1008.9 -
01/03:30pm 37.6 31.4 -0.3 9 19.3 NNE 22 39 12 21 1011.9 1008.9 -
01/03:00pm 37.1 30.5 -0.1 9 19.0 NE 24 43 13 23 1012.0 1009.0 -
01/02:44pm 37.7 30.4 0.3 9 19.3 NE 28 46 15 25 1011.8 1008.8 -
01/02:30pm 37.6 31.1 0.4 9 19.2 NE 24 39 13 21 1012.2 1009.2 -
01/02:00pm 37.2 31.7 0.7 10 18.9 ENE 19 32 10 17 1012.4 1009.4 -
01/01:30pm 36.8 30.4 0.8 10 18.6 NNE 24 37 13 20 1012.9 1010.0 -
01/01:12pm 36.9 29.7 0.9 10 18.6 ENE 28 48 15 26 1013.3 1010.4 -
01/01:00pm 36.7 29.2 0.9 10 18.5 ENE 30 44 16 24 1013.5 1010.5 -
01/12:30pm 37.3 30.5 0.6 10 18.9 E 26 41 14 22 1013.9 1010.9 -
01/12:00pm 35.4 28.9 0.2 11 17.9 E 24 37 13 20 1014.9 1012.0 -
01/11:30am 35.2 28.2 -0.2 10 17.8 E 26 39 14 21 1015.5 1012.6 0.0
01/10:30am 33.1 27.8 -0.9 11 16.7 ENE 17 26 9 14 1016.6 1013.7 0.0
01/10:00am 32.6 26.7 -1.1 11 16.4 ESE 20 35 11 19 1017.0 1014.1 0.0
01/09:30am 31.1 23.6 -1.6 12 15.7 E 28 37 15 20 1017.3 1014.4 0.0
01/09:00am 30.2 23.4 -1.6 12 15.1 ESE 24 35 13 19 1017.5 1014.6 0.0
01/08:30am 29.0 22.2 -1.6 13 14.4 ESE 24 35 13 19 1017.6 1014.7 0.0
01/08:00am 27.5 21.8 -1.0 15 13.4 ESE 19 28 10 15 1017.5 1014.6 0.0
01/07:30am 26.1 20.5 0.1 18 12.4 ESE 19 22 10 12 1017.4 1015.5 0.0
01/07:00am 23.8 20.4 1.6 23 10.7 SSE 9 17 5 9 1017.1 1015.1 0.0
01/06:30am 19.7 17.7 2.3 31 8.2 WSW 2 6 1 3 1016.8 1014.8 0.0
01/06:00am 17.8 15.0 2.3 35 7.2 WSW 6 9 3 5 1016.6 1014.6 0.0
01/05:30am 19.0 17.0 2.1 32 7.9 SW 2 2 1 1 1016.2 1014.2 0.0
01/05:00am 20.0 17.9 2.0 30 8.5 W 2 4 1 2 1015.9 1013.9 0.0
01/04:30am 20.6 18.2 2.1 29 8.8 SSE 4 9 2 5 1015.4 1013.5 0.0
01/04:00am 20.7 18.0 2.9 31 8.6 W 6 7 3 4 1015.1 1013.1 0.0
01/03:30am 21.1 18.2 2.4 29 9.0 SSW 7 11 4 6 1014.8 1012.8 0.0
01/03:00am 21.6 18.6 2.2 27 9.3 E 7 9 4 5 1014.8 1012.8 0.0
01/02:30am 23.9 21.1 2.2 24 10.6 W 6 7 3 4 1014.4 1012.4 0.0
01/02:00am 24.8 21.8 2.2 23 11.1 SW 7 13 4 7 1014.4 1012.4 0.0
01/01:30am 25.2 21.9 2.2 22 11.3 W 9 13 5 7 1014.4 1012.4 0.0
01/01:00am 26.2 21.3 2.2 21 11.9 W 17 22 9 12 1014.5 1012.5 0.0
01/12:30am 27.1 21.9 2.2 20 12.4 W 19 24 10 13 1014.8 1012.8 0.0
01/12:00am 26.6 22.1 2.2 20 12.1 W 15 19 8 10 1015.1 1013.1 0.0
 
Date/Time
WST
Temp
°C
App
Temp
°C
Dew
Point
Rel
Hum
%
Delta-T
°C
Wind Press
QNH
hPa
Press
MSL
hPa
Rain
since 9 am
mm
Dir
 
Spd
km/h
Gust
km/h
Spd
kts
Gust
kts
30/11:36pm 25.6 22.6 2.2 22 11.5 W 7 11 4 6 1015.1 1013.1 0.0
30/11:30pm 25.9 22.6 2.3 21 11.7 W 9 9 5 5 1015.2 1013.2 0.0
30/11:00pm 27.3 24.3 2.3 20 12.5 WSW 7 9 4 5 1015.4 1013.5 0.0
30/10:30pm 28.0 25.2 2.2 19 12.9 WSW 6 9 3 5 1015.7 1013.7 0.0
30/10:00pm 27.5 23.8 2.3 19 12.6 WNW 11 17 6 9 1015.7 1013.7 0.0
30/09:30pm 27.3 24.4 2.5 20 12.4 NW 7 11 4 6 1015.5 1013.6 0.0
30/09:00pm 27.0 24.2 2.3 20 12.3 NNE 6 9 3 5 1015.5 1013.6 0.0
30/08:30pm 28.3 25.5 2.3 18 13.1 E 6 6 3 3 1015.3 1013.3 0.0
30/08:00pm 28.3 25.9 2.3 18 13.1 NE 4 4 2 2 1015.1 1013.1 0.0
30/07:44pm 28.9 26.5 2.3 18 13.4 NW 4 6 2 3 1015.0 1013.0 0.0
30/07:30pm 28.5 25.7 2.3 18 13.2 NW 6 9 3 5 1014.9 1012.9 0.0
30/07:00pm 29.7 26.9 2.3 17 13.9 WNW 6 6 3 3 1014.6 1012.6 0.0
30/06:30pm 31.2 28.4 2.1 15 14.8 NNW 6 7 3 4 1014.3 1012.3 0.0
30/06:00pm 32.9 30.5 2.0 14 15.9 NNE 4 6 2 3 1014.0 1012.0 0.0
30/05:37pm 33.9 30.9 2.1 13 16.5 NNE 7 11 4 6 1013.8 1011.8 0.0
30/05:30pm 34.1 30.4 2.1 13 16.6 N 11 17 6 9 1013.7 1011.7 0.0
30/05:16pm 34.3 31.0 2.2 13 16.7 NE 9 19 5 10 1013.6 1011.5 0.0
30/05:00pm 34.4 30.7 2.2 13 16.8 NE 11 24 6 13 1013.5 1011.4 0.0
30/04:30pm 35.1 31.3 2.0 12 17.2 NE 11 30 6 16 1013.2 1011.2 0.0
30/04:00pm 34.8 29.5 1.8 12 17.1 N 19 28 10 15 1013.2 1011.2 0.0
30/03:30pm 35.2 31.5 2.2 12 17.3 NW 11 24 6 13 1013.1 1011.1 0.0
30/03:00pm 35.0 30.1 2.3 13 17.1 ENE 17 28 9 15 1013.0 1011.0 0.0
30/02:30pm 35.5 30.3 2.3 12 17.4 N 19 24 10 13 1013.2 1011.2 0.0
30/02:00pm 35.2 29.8 2.4 12 17.2 ESE 20 28 11 15 1013.3 1011.3 0.0
30/01:47pm 34.9 29.1 2.4 13 17.0 ENE 22 32 12 17 1013.6 1011.5 0.0
30/01:30pm 35.5 30.1 2.5 12 17.4 ENE 20 28 11 15 1013.9 1011.9 0.0
30/01:00pm 34.7 29.3 2.5 13 16.9 NNE 20 32 11 17 1014.2 1012.2 0.0
30/12:30pm 34.8 29.1 2.6 13 16.9 ENE 22 35 12 19 1014.6 1012.6 0.0
30/12:00pm 34.6 30.1 2.4 13 16.8 ESE 15 32 8 17 1014.9 1012.9 0.0
30/11:30am 33.2 29.1 2.2 14 16.0 ENE 13 22 7 12 1015.4 1013.5 0.0
30/11:00am 33.3 27.5 2.2 14 16.1 ESE 22 37 12 20 1015.9 1013.9 0.0
30/10:30am 32.5 25.6 2.5 15 15.5 ESE 28 41 15 22 1016.1 1014.1 0.0
30/10:00am 31.6 23.9 2.4 15 15.0 ESE 32 41 17 22 1016.3 1014.3 0.0
30/09:30am 30.2 23.6 2.1 16 14.2 ESE 26 35 14 19 1016.6 1014.6 0.0
30/09:00am 28.8 21.8 1.8 17 13.5 ESE 28 37 15 20 1016.6 1014.6 -
30/08:30am 27.4 21.1 1.8 19 12.7 SE 24 33 13 18 1016.7 1014.7 -
30/08:00am 25.6 20.0 1.5 20 11.7 SE 20 33 11 18 1016.7 1014.7 -
30/07:30am 24.2 19.2 1.1 22 11.0 SE 17 26 9 14 1016.6 1014.6 -
30/07:00am 23.3 19.0 1.0 23 10.6 SSE 13 22 7 12 1016.5 1014.5 -
30/06:30am 21.4 18.3 1.4 26 9.4 SSE 7 11 4 6 1016.3 1014.3 -
30/06:00am 20.2 17.1 1.3 28 8.8 SSE 7 11 4 6 1016.1 1014.1 -
30/05:30am 20.9 16.7 1.4 27 9.2 S 13 15 7 8 1015.8 1013.8 -
30/05:00am 20.6 17.6 1.7 28 8.9 S 7 13 4 7 1015.5 1013.6 -
30/04:30am 21.2 17.8 1.8 27 9.2 SSE 9 11 5 6 1015.4 1013.5 -
30/04:06am 21.5 17.7 1.9 27 9.3 SSE 11 17 6 9 1015.2 1013.2 -
30/04:00am 21.2 17.8 2.0 28 9.1 SSE 9 17 5 9 1015.1 1013.1 -
30/03:49am 20.3 17.5 2.3 30 8.6 SSE 6 13 3 7 1015.1 1013.1 -
30/03:36am 20.4 17.4 2.0 29 8.7 S 7 9 4 5 1014.9 1012.9 -
30/03:30am 21.7 18.3 2.1 27 9.4 S 9 9 5 5 1014.9 1012.9 -
30/03:00am 22.1 19.7 2.1 26 9.6 SSE 4 6 2 3 1014.7 1012.7 0.0
30/02:30am 21.7 19.3 2.1 27 9.4 W 4 4 2 2 1014.7 1012.7 -
30/02:00am 22.3 18.6 2.3 26 9.6 SE 11 13 6 7 1014.7 1012.7 -
30/01:47am 23.9 20.1 2.0 24 10.6 SSE 11 15 6 8 1014.8 1012.8 -
30/01:30am 23.7 20.9 2.1 24 10.5 SW 6 7 3 4 1015.0 1013.0 -
30/01:00am 24.4 21.1 2.2 23 10.8 SSW 9 11 5 6 1015.1 1013.1 -
30/12:30am 23.6 21.2 2.4 25 10.3 SW 4 6 2 3 1015.2 1013.2 -
30/12:00am 23.6 21.3 2.6 25 10.3 W 4 6 2 3 1015.5 1013.6 -
 
Date/Time
WST
Temp
°C
App
Temp
°C
Dew
Point
Rel
Hum
%
Delta-T
°C
Wind Press
QNH
hPa
Press
MSL
hPa
Rain
since 9 am
mm
Dir
 
Spd
km/h
Gust
km/h
Spd
kts
Gust
kts
29/11:30pm 24.3 21.4 2.6 24 10.7 S 7 9 4 5 1015.5 1013.6 -
29/11:00pm 26.8 22.8 2.7 21 12.1 W 13 19 7 10 1015.4 1013.5 -
29/10:30pm 27.4 23.0 2.8 20 12.4 W 15 20 8 11 1015.7 1013.7 -
29/10:00pm 26.9 22.9 2.6 20 12.2 WNW 13 17 7 9 1015.8 1013.8 -
29/09:56pm 27.2 23.2 2.7 20 12.3 NW 13 17 7 9 1015.7 1013.7 -
29/09:30pm 27.2 23.5 2.5 20 12.4 WNW 11 13 6 7 1015.9 1013.9 -
29/09:00pm 28.0 24.3 2.5 19 12.8 WNW 11 15 6 8 1015.9 1013.9 -
29/08:30pm 27.9 24.6 2.5 19 12.8 WNW 9 11 5 6 1015.7 1013.7 -
29/08:00pm 28.1 24.8 2.4 19 12.9 WNW 9 11 5 6 1015.4 1013.5 -
29/07:59pm 28.1 24.8 2.4 19 12.9 WNW 9 11 5 6 1015.4 1013.5 -
29/07:30pm 28.8 25.5 2.4 18 13.3 WNW 9 11 5 6 1015.1 1013.1 -
29/07:06pm 29.3 25.6 2.5 18 13.6 WNW 11 13 6 7 1014.8 1012.8 -
29/07:00pm 29.6 25.9 2.5 17 13.8 WNW 11 13 6 7 1014.7 1012.7 -
29/06:30pm 30.7 27.0 2.5 16 14.4 NW 11 17 6 9 1014.3 1012.3 -
29/06:22pm 30.7 27.4 2.5 16 14.4 NW 9 13 5 7 1014.2 1012.2 -
29/06:00pm 31.4 27.3 2.3 15 14.9 WNW 13 20 7 11 1013.9 1011.9 -
29/05:30pm 32.5 27.7 2.4 15 15.6 WNW 17 26 9 14 1013.5 1011.4 -
29/05:26pm 32.5 27.6 2.3 14 15.6 WNW 17 26 9 14 1013.5 1011.4 -
29/05:08pm 32.9 28.1 2.4 14 15.8 NW 17 30 9 16 1013.2 1011.2 -
29/05:00pm 33.1 28.3 2.4 14 15.9 NNW 17 24 9 13 1013.2 1011.2 -
29/04:48pm 33.2 27.8 2.5 14 16.0 NW 20 32 11 17 1013.2 1011.2 -
29/04:30pm 33.3 28.1 2.6 14 16.0 WSW 19 30 10 16 1013.0 1011.0 -
29/04:27pm 33.0 28.6 2.5 14 15.8 NW 15 22 8 12 1013.1 1011.1 -
29/04:06pm 33.2 27.5 2.6 14 15.9 NW 22 33 12 18 1013.0 1011.0 -
29/04:00pm 33.5 27.4 2.5 14 16.1 NW 24 35 13 19 1013.0 1011.0 -
29/03:54pm 33.7 28.5 2.7 14 16.2 NNW 19 35 10 19 1013.0 1011.0 -
29/03:30pm 33.8 28.4 2.6 14 16.3 WNW 20 32 11 17 1013.0 1011.0 -
29/03:00pm 33.7 28.6 2.8 14 16.2 WNW 19 30 10 16 1013.0 1011.0 0.0
29/02:30pm 33.0 28.6 2.9 15 15.7 NNW 15 26 8 14 1013.2 1011.2 0.0
29/02:00pm 33.2 29.2 3.1 15 15.8 N 13 22 7 12 1013.6 1011.5 0.0
29/01:30pm 32.8 28.5 3.0 15 15.6 W 15 24 8 13 1013.9 1011.9 0.0
29/01:00pm 31.7 29.0 2.9 16 14.9 NNE 6 - 3 - 1014.4 1012.4 0.0
29/12:30pm 31.6 29.0 3.1 16 14.8 WSW 6 13 3 7 1014.9 1012.9 0.0

Other Formats:

Comma delimited format used in spreadsheet applications
http://www.bom.gov.au/fwo/IDW60801/IDW60801.99736.axf

JavaScript Object Notation format (JSON) in row-major order
http://www.bom.gov.au/fwo/IDW60801/IDW60801.99736.json